createdAt,value
2019-03-12T00:00:13.830Z,76.60
2019-03-12T00:02:42.293Z,75.47
2019-03-12T00:05:10.760Z,76.41
2019-03-12T00:07:39.238Z,76.08
2019-03-12T00:10:09.138Z,75.88
2019-03-12T00:12:37.611Z,76.97
2019-03-12T00:15:07.896Z,76.22
2019-03-12T00:17:36.358Z,76.41
2019-03-12T00:20:06.572Z,76.45
2019-03-12T00:22:35.115Z,76.92
2019-03-12T00:25:03.694Z,76.13
2019-03-12T00:27:32.170Z,76.88
2019-03-12T00:30:00.642Z,77.24
2019-03-12T00:32:29.119Z,75.99
2019-03-12T00:34:57.583Z,75.85
2019-03-12T00:37:26.058Z,75.09
2019-03-12T00:39:54.575Z,76.17
2019-03-12T00:42:23.041Z,76.88
2019-03-12T00:44:51.987Z,76.30
2019-03-12T00:47:20.487Z,76.39
2019-03-12T00:49:48.979Z,76.29
2019-03-12T00:52:17.447Z,75.35
2019-03-12T00:54:45.942Z,74.71
2019-03-12T00:57:14.441Z,74.29
2019-03-12T00:59:42.951Z,74.82
2019-03-12T01:02:11.422Z,74.48
2019-03-12T01:04:39.885Z,74.03
2019-03-12T01:07:08.366Z,74.33
2019-03-12T01:09:36.897Z,73.91
2019-03-12T01:12:05.731Z,75.32
2019-03-12T01:14:34.191Z,74.50
2019-03-12T01:17:02.691Z,74.10
2019-03-12T01:19:31.183Z,74.50
2019-03-12T01:21:59.849Z,74.14
2019-03-12T01:24:28.398Z,73.36
2019-03-12T01:26:56.886Z,74.50
2019-03-12T01:29:25.427Z,74.10
2019-03-12T01:31:53.891Z,74.49
2019-03-12T01:34:22.354Z,74.00
2019-03-12T01:36:50.839Z,74.13
2019-03-12T01:39:19.321Z,74.59
2019-03-12T01:41:47.815Z,74.30
2019-03-12T01:44:16.282Z,74.42
2019-03-12T01:46:44.776Z,75.89
2019-03-12T01:49:13.242Z,75.50
2019-03-12T01:51:41.773Z,75.50
2019-03-12T01:54:10.238Z,74.35
2019-03-12T01:56:38.705Z,74.29
2019-03-12T01:59:07.196Z,73.81
2019-03-12T02:01:35.707Z,73.59
2019-03-12T02:04:04.323Z,74.12
2019-03-12T02:06:32.817Z,74.62
2019-03-12T02:09:01.287Z,75.03
2019-03-12T02:11:30.026Z,75.29
2019-03-12T02:13:58.520Z,75.39
2019-03-12T02:16:26.981Z,74.32
2019-03-12T02:18:55.486Z,73.86
2019-03-12T02:21:23.952Z,73.45
2019-03-12T02:23:52.417Z,73.76
2019-03-12T02:26:20.924Z,73.34
2019-03-12T02:28:49.387Z,73.60
2019-03-12T02:31:17.920Z,74.21
2019-03-12T02:33:46.385Z,73.75
2019-03-12T02:36:14.850Z,73.47
2019-03-12T02:38:43.343Z,74.47
2019-03-12T02:41:11.809Z,74.27
2019-03-12T02:43:40.285Z,74.48
2019-03-12T02:46:08.828Z,74.29
2019-03-12T02:48:37.289Z,73.65
2019-03-12T02:51:05.847Z,74.05
2019-03-12T02:53:34.317Z,74.19
2019-03-12T02:56:02.816Z,73.78
2019-03-12T02:58:31.279Z,74.79
2019-03-12T03:00:59.771Z,75.69
2019-03-12T03:03:28.247Z,75.00
2019-03-12T03:06:01.555Z,74.80
2019-03-12T03:08:31.679Z,75.32
2019-03-12T03:11:00.173Z,74.74
2019-03-12T03:13:28.764Z,74.92
2019-03-12T03:15:57.218Z,75.17
2019-03-12T03:18:25.738Z,75.13
2019-03-12T03:20:54.194Z,75.03
2019-03-12T03:23:22.696Z,75.93
2019-03-12T03:25:51.187Z,76.08
2019-03-12T03:28:19.671Z,75.20
2019-03-12T03:30:48.149Z,75.27
2019-03-12T03:33:16.665Z,74.15
2019-03-12T03:35:45.118Z,74.00
2019-03-12T03:38:13.659Z,73.97
2019-03-12T03:40:42.225Z,74.41
2019-03-12T03:43:10.687Z,73.90
2019-03-12T03:45:39.224Z,75.10
2019-03-12T03:48:07.740Z,75.12
2019-03-12T03:50:36.195Z,74.81
2019-03-12T03:53:04.766Z,74.15
2019-03-12T03:55:33.231Z,74.03
2019-03-12T03:58:01.803Z,74.35
2019-03-12T04:00:30.339Z,73.08
2019-03-12T04:02:58.839Z,74.08
2019-03-12T04:05:27.306Z,73.85
2019-03-12T04:07:55.867Z,72.50
2019-03-12T04:10:24.335Z,71.08
2019-03-12T04:12:52.820Z,70.65
2019-03-12T04:15:21.304Z,71.44
2019-03-12T04:17:49.866Z,70.54
2019-03-12T04:20:19.267Z,70.14
2019-03-12T04:22:47.942Z,70.08
2019-03-12T04:25:16.648Z,69.70
2019-03-12T04:27:45.138Z,69.41
2019-03-12T04:30:17.648Z,69.42
2019-03-12T04:32:46.315Z,69.61
2019-03-12T04:35:30.061Z,68.99
2019-03-12T04:37:58.555Z,69.17
2019-03-12T04:40:27.024Z,69.34
2019-03-12T04:42:55.501Z,69.09
2019-03-12T04:45:23.979Z,68.37
2019-03-12T04:47:52.474Z,68.31
2019-03-12T04:50:20.934Z,68.60
2019-03-12T04:52:49.426Z,68.91
2019-03-12T04:55:18.039Z,69.32
2019-03-12T04:57:46.568Z,69.18
2019-03-12T05:00:21.314Z,69.18
2019-03-12T05:02:49.781Z,69.16
2019-03-12T05:05:18.285Z,68.50
2019-03-12T05:07:46.756Z,68.75
2019-03-12T05:10:16.874Z,68.24
2019-03-12T05:12:45.409Z,67.73
2019-03-12T05:15:16.191Z,67.98
2019-03-12T05:17:45.523Z,68.12
2019-03-12T05:20:15.898Z,68.57
2019-03-12T05:22:44.429Z,68.30
2019-03-12T05:25:14.273Z,68.64
2019-03-12T05:27:43.195Z,68.73
2019-03-12T05:30:17.707Z,69.03
2019-03-12T05:32:46.232Z,68.19
2019-03-12T05:35:14.902Z,68.81
2019-03-12T05:37:43.631Z,69.34
2019-03-12T05:40:13.948Z,69.64
2019-03-12T05:42:42.512Z,68.89
2019-03-12T05:45:12.919Z,69.13
2019-03-12T05:47:41.420Z,68.90
2019-03-12T05:50:12.568Z,69.46
2019-03-12T05:52:41.067Z,69.85
2019-03-12T05:55:11.173Z,69.40
2019-03-12T05:57:39.672Z,69.79
2019-03-12T06:00:11.416Z,69.46
2019-03-12T06:02:39.177Z,69.46
2019-03-12T06:05:08.283Z,68.57
2019-03-12T06:07:36.775Z,69.83
2019-03-12T06:10:08.146Z,70.50
2019-03-12T06:12:36.640Z,70.76
2019-03-12T06:15:07.991Z,71.89
2019-03-12T06:17:36.522Z,70.76
2019-03-12T06:20:08.033Z,71.00
2019-03-12T06:22:36.512Z,70.82
2019-03-12T06:25:05.846Z,69.86
2019-03-12T06:27:34.304Z,70.23
2019-03-12T06:30:02.872Z,70.71
2019-03-12T06:32:33.002Z,70.83
2019-03-12T06:35:03.133Z,71.57
2019-03-12T06:37:51.271Z,70.67
2019-03-12T06:40:21.454Z,69.87
2019-03-12T06:42:57.311Z,70.68
2019-03-12T06:45:27.477Z,71.14
2019-03-12T06:48:15.376Z,72.06
2019-03-12T06:50:45.490Z,71.20
2019-03-12T06:53:15.633Z,70.99
2019-03-12T06:56:01.931Z,71.16
2019-03-12T06:58:48.510Z,70.54
2019-03-12T07:01:33.873Z,71.99
2019-03-12T07:04:13.087Z,71.92
2019-03-12T07:06:49.148Z,71.71
2019-03-12T07:09:35.613Z,71.00
2019-03-12T07:12:08.507Z,70.53
2019-03-12T07:14:54.943Z,70.75
2019-03-12T07:17:25.060Z,70.21
2019-03-12T07:20:13.291Z,70.89
2019-03-12T07:22:46.565Z,71.02
2019-03-12T07:25:19.476Z,71.99
2019-03-12T07:27:58.538Z,71.16
2019-03-12T07:30:34.458Z,71.92
2019-03-12T07:33:10.093Z,71.70
2019-03-12T07:35:40.204Z,72.46
2019-03-12T07:38:28.751Z,72.65
2019-03-12T07:41:23.580Z,71.49
2019-03-12T07:43:54.950Z,72.26
2019-03-12T07:46:25.042Z,70.85
2019-03-12T07:48:58.752Z,72.17
2019-03-12T07:51:44.813Z,71.45
2019-03-12T07:54:14.926Z,70.04
2019-03-12T07:56:45.034Z,70.43
2019-03-12T07:59:14.994Z,70.65
2019-03-12T08:01:47.760Z,70.79
2019-03-12T08:04:32.905Z,70.15
2019-03-12T08:07:08.809Z,69.59
2019-03-12T08:09:50.905Z,70.67
2019-03-12T08:12:34.413Z,69.69
2019-03-12T08:15:05.309Z,68.86
2019-03-12T08:17:51.815Z,69.41
2019-03-12T08:20:21.951Z,69.09
2019-03-12T08:22:52.060Z,68.68
2019-03-12T08:25:38.360Z,68.10
2019-03-12T08:28:11.018Z,68.73
2019-03-12T08:30:53.324Z,68.96
2019-03-12T08:33:25.897Z,67.02
2019-03-12T08:35:58.820Z,68.54
2019-03-12T08:38:46.556Z,66.98
2019-03-12T08:41:16.769Z,66.14
2019-03-12T08:43:51.342Z,66.51
2019-03-12T08:46:22.313Z,65.43
2019-03-12T08:48:55.493Z,66.48
2019-03-12T08:51:25.620Z,65.63
2019-03-12T08:54:13.788Z,66.47
2019-03-12T08:56:52.880Z,66.33
2019-03-12T08:59:39.200Z,64.86
2019-03-12T09:02:15.310Z,64.86
2019-03-12T09:04:45.415Z,63.96
2019-03-12T09:07:21.490Z,63.37
2019-03-12T09:09:51.601Z,59.31
2019-03-12T09:12:21.734Z,57.15
2019-03-12T09:15:10.045Z,56.33
2019-03-12T09:17:40.179Z,55.43
2019-03-12T09:20:11.924Z,53.30
2019-03-12T09:22:47.503Z,54.29
2019-03-12T09:25:26.792Z,54.73
2019-03-12T09:28:15.146Z,54.72
2019-03-12T09:30:51.278Z,55.11
2019-03-12T09:33:24.091Z,55.29
2019-03-12T09:36:03.001Z,57.14
2019-03-12T09:38:42.382Z,56.73
2019-03-12T09:41:15.199Z,57.62
2019-03-12T09:43:48.375Z,56.22
2019-03-12T09:46:21.370Z,54.43
2019-03-12T09:48:54.498Z,50.83
2019-03-12T09:51:24.681Z,47.21
2019-03-12T09:54:11.126Z,48.87
2019-03-12T09:56:50.367Z,51.29
2019-03-12T09:59:36.928Z,52.20
2019-03-12T10:02:21.969Z,51.46
2019-03-12T10:04:54.810Z,52.39
2019-03-12T10:07:24.917Z,51.84
2019-03-12T10:09:58.240Z,52.45
2019-03-12T10:12:31.020Z,51.58
2019-03-12T10:15:17.587Z,52.43
2019-03-12T10:18:02.455Z,51.57
2019-03-12T10:20:31.132Z,52.28
2019-03-12T10:23:06.956Z,52.38
2019-03-12T10:25:52.993Z,49.88
2019-03-12T10:28:34.881Z,47.61
2019-03-12T10:31:10.822Z,47.96
2019-03-12T10:33:57.490Z,45.24
2019-03-12T10:36:30.795Z,47.71
2019-03-12T10:39:22.994Z,47.46
2019-03-12T10:41:56.070Z,44.87
2019-03-12T10:44:44.291Z,44.63
2019-03-12T10:47:14.395Z,41.96
2019-03-12T10:49:42.854Z,43.20
2019-03-12T10:52:11.345Z,39.99
2019-03-12T10:54:39.804Z,38.86
2019-03-12T10:57:08.389Z,38.08
2019-03-12T10:59:36.857Z,38.86
2019-03-12T11:02:05.487Z,39.57
2019-03-12T11:04:33.951Z,40.58
2019-03-12T11:07:15.553Z,39.71
2019-03-12T11:09:32.678Z,43.64
2019-03-12T11:12:01.098Z,39.84
2019-03-12T11:14:29.582Z,36.44
2019-03-12T11:16:58.048Z,38.32
2019-03-12T11:19:26.515Z,37.09
2019-03-12T11:21:55.007Z,34.54
2019-03-12T11:24:23.500Z,36.25
2019-03-12T11:26:52.004Z,39.43
2019-03-12T11:29:20.467Z,42.31
2019-03-12T11:31:48.934Z,41.59
2019-03-12T11:34:17.434Z,41.46
2019-03-12T11:36:47.149Z,42.54
2019-03-12T11:39:15.690Z,43.92
2019-03-12T11:41:44.163Z,41.57
2019-03-12T11:44:12.888Z,41.07
2019-03-12T11:46:45.332Z,42.84
2019-03-12T11:49:11.789Z,42.47
2019-03-12T11:51:40.276Z,41.99
2019-03-12T11:54:10.009Z,42.42
2019-03-12T11:56:38.834Z,45.17
2019-03-12T11:59:07.291Z,41.13
2019-03-12T12:01:35.763Z,40.84
2019-03-12T12:04:04.371Z,40.68
2019-03-12T12:06:32.970Z,41.78
2019-03-12T12:09:01.530Z,42.37
2019-03-12T12:11:29.997Z,43.41
2019-03-12T12:13:58.635Z,45.25
2019-03-12T12:16:27.108Z,43.71
2019-03-12T12:18:55.582Z,40.12
2019-03-12T12:21:24.084Z,40.28
2019-03-12T12:23:52.547Z,36.63
2019-03-12T12:26:21.023Z,36.54
2019-03-12T12:28:49.494Z,36.20
2019-03-12T12:31:17.972Z,37.46
2019-03-12T12:33:46.460Z,37.00
2019-03-12T12:36:15.078Z,36.71
2019-03-12T12:38:43.669Z,37.86
2019-03-12T12:41:12.161Z,36.56
2019-03-12T12:43:40.646Z,37.01
2019-03-12T12:46:09.129Z,35.80
2019-03-12T12:48:37.617Z,36.79
2019-03-12T12:51:06.143Z,36.64
2019-03-12T12:53:35.096Z,37.84
2019-03-12T12:56:03.733Z,37.63
2019-03-12T12:58:32.767Z,36.90
2019-03-12T13:01:01.313Z,37.30
2019-03-12T13:03:29.855Z,37.93
2019-03-12T13:05:58.393Z,38.61
2019-03-12T13:08:26.881Z,38.08
2019-03-12T13:10:55.408Z,37.16
2019-03-12T13:13:23.914Z,38.25
2019-03-12T13:15:52.357Z,37.64
2019-03-12T13:18:20.856Z,39.25
2019-03-12T13:20:49.329Z,38.55
2019-03-12T13:23:17.854Z,39.83
2019-03-12T13:25:46.339Z,38.10
2019-03-12T13:28:14.889Z,38.19
2019-03-12T13:30:43.429Z,39.19
2019-03-12T13:33:11.974Z,38.39
2019-03-12T13:35:40.445Z,37.86
2019-03-12T13:38:08.980Z,37.62
2019-03-12T13:40:37.454Z,38.20
2019-03-12T13:43:06.013Z,39.28
2019-03-12T13:45:34.529Z,38.26
2019-03-12T13:48:03.455Z,37.02
2019-03-12T13:50:32.230Z,36.95
2019-03-12T13:53:00.807Z,38.08
2019-03-12T13:55:29.387Z,38.20
2019-03-12T13:57:57.902Z,37.68
2019-03-12T14:00:28.708Z,37.31
2019-03-12T14:02:57.317Z,37.36
2019-03-12T14:05:25.860Z,39.02
2019-03-12T14:07:54.461Z,38.68
2019-03-12T14:10:23.970Z,38.02
2019-03-12T14:12:53.854Z,37.16
2019-03-12T14:15:33.446Z,36.31
2019-03-12T14:18:02.103Z,36.21
2019-03-12T14:20:45.245Z,36.87
2019-03-12T14:23:16.524Z,36.48
2019-03-12T14:25:45.544Z,37.74
2019-03-12T14:28:14.238Z,37.25
2019-03-12T14:30:42.733Z,36.89
2019-03-12T14:33:11.575Z,35.19
2019-03-12T14:35:50.882Z,36.44
2019-03-12T14:38:10.589Z,35.95
2019-03-12T14:40:39.238Z,35.98
2019-03-12T14:43:08.037Z,38.36
2019-03-12T14:45:38.356Z,38.05
2019-03-12T14:48:08.398Z,37.92
2019-03-12T14:50:36.884Z,39.79
2019-03-12T14:53:20.986Z,40.80
2019-03-12T14:55:38.923Z,39.22
2019-03-12T14:58:07.480Z,38.69
2019-03-12T15:00:36.008Z,38.13
2019-03-12T15:03:04.507Z,37.99
2019-03-12T15:05:33.311Z,37.48
2019-03-12T15:08:01.864Z,37.39
2019-03-12T15:10:30.409Z,37.58
2019-03-12T15:12:58.907Z,38.17
2019-03-12T15:15:27.385Z,37.49
2019-03-12T15:17:55.889Z,37.45
2019-03-12T15:20:24.389Z,37.68
2019-03-12T15:22:52.874Z,37.90
2019-03-12T15:25:21.368Z,37.17
2019-03-12T15:27:49.831Z,36.72
2019-03-12T15:30:20.950Z,36.78
2019-03-12T15:32:49.477Z,37.36
2019-03-12T15:35:18.009Z,38.17
2019-03-12T15:37:46.462Z,40.74
2019-03-12T15:40:15.293Z,40.76
2019-03-12T15:42:43.758Z,39.75
2019-03-12T15:45:13.992Z,40.07
2019-03-12T15:47:42.535Z,40.77
2019-03-12T15:50:13.532Z,40.40
2019-03-12T15:52:42.027Z,40.92
2019-03-12T15:55:10.620Z,41.05
2019-03-12T15:57:39.167Z,40.06
2019-03-12T16:00:10.681Z,40.47
2019-03-12T16:02:39.172Z,40.18
2019-03-12T16:05:08.891Z,40.80
2019-03-12T16:07:37.433Z,40.64
2019-03-12T16:10:14.202Z,41.12
2019-03-12T16:12:42.707Z,41.91
2019-03-12T16:15:12.939Z,41.15
2019-03-12T16:17:41.415Z,41.53
2019-03-12T16:20:15.648Z,40.30
2019-03-12T16:22:44.851Z,40.64
2019-03-12T16:25:13.662Z,40.47
2019-03-12T16:27:42.117Z,41.10
2019-03-12T16:30:13.795Z,40.00
2019-03-12T16:32:42.290Z,41.38
2019-03-12T16:35:10.984Z,40.31
2019-03-12T16:37:39.523Z,41.23
2019-03-12T16:40:15.888Z,41.92
2019-03-12T16:42:44.417Z,42.36
2019-03-12T16:45:14.537Z,41.19
2019-03-12T16:47:43.006Z,41.72
2019-03-12T16:50:14.185Z,42.74
2019-03-12T16:52:42.645Z,43.45
2019-03-12T16:55:13.245Z,44.74
2019-03-12T16:57:41.809Z,44.38
2019-03-12T17:00:18.301Z,44.04
2019-03-12T17:02:47.108Z,44.63
2019-03-12T17:05:15.799Z,44.66
2019-03-12T17:07:44.523Z,45.37
2019-03-12T17:10:21.146Z,45.59
2019-03-12T17:12:49.609Z,45.39
2019-03-12T17:15:26.181Z,45.83
2019-03-12T17:17:54.697Z,45.84
2019-03-12T17:20:23.209Z,45.59
2019-03-12T17:22:51.685Z,45.06
2019-03-12T17:25:20.275Z,45.16
2019-03-12T17:27:51.402Z,44.75
2019-03-12T17:30:24.860Z,43.98
2019-03-12T17:32:53.421Z,44.12
2019-03-12T17:35:33.919Z,44.58
2019-03-12T17:38:02.487Z,44.49
2019-03-12T17:40:31.024Z,44.86
2019-03-12T17:42:59.520Z,44.84
2019-03-12T17:45:27.988Z,44.98
2019-03-12T17:47:56.520Z,44.96
2019-03-12T17:50:25.155Z,44.58
2019-03-12T17:52:53.622Z,44.84
2019-03-12T17:55:22.157Z,44.50
2019-03-12T17:57:51.216Z,44.37
2019-03-12T18:00:30.035Z,44.87
2019-03-12T18:02:58.648Z,44.87
2019-03-12T18:05:27.179Z,45.49
2019-03-12T18:07:55.724Z,45.21
2019-03-12T18:10:24.203Z,45.23
2019-03-12T18:12:52.810Z,44.72
2019-03-12T18:15:21.964Z,45.49
2019-03-12T18:17:50.495Z,46.20
2019-03-12T18:20:22.862Z,46.07
2019-03-12T18:22:51.329Z,46.38
2019-03-12T18:25:31.542Z,46.52
2019-03-12T18:28:00.041Z,46.86
2019-03-12T18:30:28.501Z,47.13
2019-03-12T18:32:57.161Z,47.10
2019-03-12T18:35:26.845Z,47.13
2019-03-12T18:37:55.379Z,47.51
2019-03-12T18:40:30.270Z,46.90
2019-03-12T18:42:58.793Z,46.64
2019-03-12T18:45:31.941Z,46.27
2019-03-12T18:48:00.443Z,45.59
2019-03-12T18:50:29.056Z,45.06
2019-03-12T18:52:57.740Z,45.26
2019-03-12T18:55:38.111Z,45.37
2019-03-12T18:58:07.196Z,45.22
2019-03-12T19:00:36.700Z,45.54
2019-03-12T19:03:05.229Z,45.29
2019-03-12T19:05:33.742Z,45.25
2019-03-12T19:08:02.335Z,45.96
2019-03-12T19:10:30.914Z,45.73
2019-03-12T19:12:59.514Z,46.34
2019-03-12T19:15:28.128Z,47.11
2019-03-12T19:17:56.746Z,47.28
2019-03-12T19:20:25.382Z,46.97
2019-03-12T19:22:53.894Z,47.10
2019-03-12T19:25:25.468Z,47.08
2019-03-12T19:27:59.736Z,47.12
2019-03-12T19:30:25.148Z,47.31
2019-03-12T19:33:10.435Z,47.53
2019-03-12T19:35:38.916Z,47.86
2019-03-12T19:38:07.619Z,48.64
2019-03-12T19:40:41.918Z,47.98
2019-03-12T19:43:10.619Z,48.39
2019-03-12T19:45:39.280Z,48.28
2019-03-12T19:48:07.888Z,47.57
2019-03-12T19:50:36.638Z,48.28
2019-03-12T19:53:06.839Z,47.79
2019-03-12T19:55:50.397Z,47.65
2019-03-12T19:58:19.032Z,48.19
2019-03-12T20:00:48.436Z,48.92
2019-03-12T20:03:17.086Z,49.21
2019-03-12T20:05:45.685Z,48.92
2019-03-12T20:08:14.255Z,49.19
2019-03-12T20:11:13.797Z,49.14
2019-03-12T20:14:02.022Z,49.99
2019-03-12T20:16:36.177Z,50.87
2019-03-12T20:19:24.254Z,50.99
2019-03-12T20:22:18.425Z,51.27
2019-03-12T20:25:23.349Z,51.41
2019-03-12T20:28:29.690Z,51.06
2019-03-12T20:31:20.554Z,51.71
2019-03-12T20:34:14.626Z,51.79
2019-03-12T20:37:15.077Z,51.22
2019-03-12T20:40:12.282Z,50.96
2019-03-12T20:43:17.257Z,51.50
2019-03-12T20:46:22.018Z,51.58
2019-03-12T20:49:11.593Z,52.64
2019-03-12T20:52:16.777Z,52.20
2019-03-12T20:55:21.676Z,52.19
2019-03-12T20:58:12.906Z,52.29
2019-03-12T21:01:02.717Z,52.43
2019-03-12T21:03:37.021Z,51.17
2019-03-12T21:06:31.377Z,52.28
2019-03-12T21:09:20.361Z,51.55
2019-03-12T21:12:03.823Z,52.26
2019-03-12T21:14:50.509Z,52.15
2019-03-12T21:17:22.027Z,52.11
2019-03-12T21:20:16.596Z,52.02
2019-03-12T21:23:00.252Z,51.31
2019-03-12T21:25:37.363Z,52.44
2019-03-12T21:28:14.478Z,52.89
2019-03-12T21:30:43.122Z,52.76
2019-03-12T21:33:15.607Z,52.41
2019-03-12T21:35:43.122Z,51.79
2019-03-12T21:38:11.580Z,51.33
2019-03-12T21:40:40.109Z,51.47
2019-03-12T21:43:08.574Z,51.85
2019-03-12T21:45:37.291Z,52.23
2019-03-12T21:48:05.860Z,51.70
2019-03-12T21:50:34.397Z,52.42
2019-03-12T21:53:02.879Z,52.54
2019-03-12T21:55:31.373Z,53.34
2019-03-12T21:57:59.948Z,52.79
2019-03-12T22:00:28.516Z,52.77
2019-03-12T22:02:57.051Z,52.36
2019-03-12T22:05:27.196Z,52.87
2019-03-12T22:07:55.692Z,52.13
2019-03-12T22:10:24.157Z,53.28
2019-03-12T22:12:52.684Z,53.57
2019-03-12T22:15:21.151Z,53.88
2019-03-12T22:17:51.129Z,53.74
2019-03-12T22:20:19.601Z,53.05
2019-03-12T22:22:58.585Z,53.76
2019-03-12T22:25:27.063Z,54.17
2019-03-12T22:27:55.556Z,53.84
2019-03-12T22:30:25.660Z,53.53
2019-03-12T22:32:54.213Z,52.82
2019-03-12T22:35:22.824Z,53.35
2019-03-12T22:37:51.390Z,52.80
2019-03-12T22:40:19.858Z,53.13
2019-03-12T22:42:48.351Z,53.07
2019-03-12T22:45:17.081Z,52.94
2019-03-12T22:47:45.542Z,53.08
2019-03-12T22:50:15.877Z,52.53
2019-03-12T22:52:44.337Z,52.55
2019-03-12T22:55:14.073Z,52.39
2019-03-12T22:57:42.711Z,52.75
2019-03-12T23:00:19.573Z,53.41
2019-03-12T23:02:48.027Z,53.73
2019-03-12T23:05:16.815Z,54.04
2019-03-12T23:07:46.714Z,54.39
2019-03-12T23:10:17.351Z,54.69
2019-03-12T23:12:46.153Z,54.63
2019-03-12T23:15:19.654Z,53.97
2019-03-12T23:17:48.267Z,53.86
2019-03-12T23:20:19.721Z,53.57
2019-03-12T23:22:51.784Z,53.99
2019-03-12T23:25:18.766Z,53.84
2019-03-12T23:27:47.379Z,53.73
2019-03-12T23:30:18.301Z,53.64
2019-03-12T23:32:46.889Z,53.30
2019-03-12T23:35:15.568Z,53.58
2019-03-12T23:37:44.252Z,52.92
2019-03-12T23:40:19.427Z,53.32
2019-03-12T23:42:48.059Z,53.46
2019-03-12T23:45:17.834Z,53.08
2019-03-12T23:47:49.965Z,52.31
2019-03-12T23:50:18.379Z,52.30
2019-03-12T23:52:47.057Z,52.63
2019-03-12T23:55:17.983Z,52.96
2019-03-12T23:57:46.858Z,52.54
